createdAt,value
2023-04-16T00:00:08.295Z,8.27
2023-04-16T00:02:59.921Z,7.82
2023-04-16T00:05:28.462Z,8.15
2023-04-16T00:07:59.023Z,8.65
2023-04-16T00:10:27.448Z,7.72
2023-04-16T00:12:56.341Z,7.55
2023-04-16T00:15:24.516Z,7.90
2023-04-16T00:17:55.743Z,8.43
2023-04-16T00:20:23.986Z,8.68
2023-04-16T00:22:52.696Z,8.43
2023-04-16T00:25:22.087Z,7.70
2023-04-16T00:27:50.949Z,8.25
2023-04-16T00:30:20.022Z,8.15
2023-04-16T00:32:49.113Z,8.52
2023-04-16T00:35:17.979Z,7.28
2023-04-16T00:37:47.033Z,8.27
2023-04-16T00:40:15.773Z,8.00
2023-04-16T00:42:44.393Z,8.48
2023-04-16T00:45:12.850Z,8.57
2023-04-16T00:47:41.877Z,9.88
2023-04-16T00:50:12.027Z,8.80
2023-04-16T00:52:41.312Z,7.63
2023-04-16T00:55:13.520Z,8.20
2023-04-16T00:57:46.010Z,8.43
2023-04-16T01:00:17.619Z,8.40
2023-04-16T01:05:14.926Z,8.98
2023-04-16T01:07:44.876Z,9.35
2023-04-16T01:10:13.211Z,10.13
2023-04-16T01:12:44.194Z,10.00
2023-04-16T01:15:12.618Z,9.07
2023-04-16T01:17:41.665Z,9.50
2023-04-16T01:20:10.251Z,9.02
2023-04-16T01:22:45.578Z,9.68
2023-04-16T01:25:15.969Z,9.75
2023-04-16T01:27:44.815Z,10.02
2023-04-16T01:30:14.213Z,10.07
2023-04-16T01:32:54.201Z,9.52
2023-04-16T01:35:22.847Z,9.68
2023-04-16T01:37:52.798Z,9.82
2023-04-16T01:40:21.179Z,10.60
2023-04-16T01:42:51.630Z,10.38
2023-04-16T01:45:20.353Z,10.23
2023-04-16T01:47:51.328Z,10.00
2023-04-16T01:50:21.509Z,10.23
2023-04-16T01:52:50.237Z,10.75
2023-04-16T01:55:18.578Z,9.52
2023-04-16T01:57:47.460Z,9.65
2023-04-16T02:00:17.438Z,9.00
2023-04-16T02:02:49.659Z,8.77
2023-04-16T02:05:27.046Z,8.55
2023-04-16T02:07:55.974Z,8.85
2023-04-16T02:10:24.577Z,9.00
2023-04-16T02:12:54.014Z,8.80
2023-04-16T02:15:23.077Z,8.93
2023-04-16T02:17:57.301Z,9.38
2023-04-16T02:20:29.235Z,8.93
2023-04-16T02:23:02.212Z,9.82
2023-04-16T02:25:30.987Z,9.52
2023-04-16T02:28:00.349Z,9.85
2023-04-16T02:30:40.933Z,9.00
2023-04-16T02:33:12.216Z,9.13
2023-04-16T02:35:48.753Z,9.35
2023-04-16T02:38:17.986Z,10.30
2023-04-16T02:40:46.402Z,10.10
2023-04-16T02:43:15.403Z,10.65
2023-04-16T02:45:45.010Z,11.25
2023-04-16T02:48:13.778Z,11.85
2023-04-16T02:50:42.032Z,11.55
2023-04-16T02:53:10.981Z,10.93
2023-04-16T02:55:39.289Z,11.10
2023-04-16T02:58:07.992Z,10.38
2023-04-16T03:00:36.341Z,11.52
2023-04-16T03:03:05.009Z,10.70
2023-04-16T03:05:33.712Z,10.80
2023-04-16T03:08:03.683Z,11.07
2023-04-16T03:10:32.766Z,11.13
2023-04-16T03:13:01.723Z,10.52
2023-04-16T03:15:31.474Z,11.15
2023-04-16T03:18:00.781Z,11.18
2023-04-16T03:20:29.592Z,10.85
2023-04-16T03:22:58.204Z,10.30
2023-04-16T03:25:26.587Z,10.55
2023-04-16T03:27:55.488Z,11.07
2023-04-16T03:30:24.455Z,11.50
2023-04-16T03:32:53.489Z,11.65
2023-04-16T03:35:22.849Z,11.10
2023-04-16T03:37:51.985Z,11.15
2023-04-16T03:40:20.624Z,11.43
2023-04-16T03:42:51.021Z,12.15
2023-04-16T03:45:19.378Z,12.25
2023-04-16T03:47:53.002Z,12.13
2023-04-16T03:50:24.666Z,11.70
2023-04-16T03:52:53.478Z,11.63
2023-04-16T03:55:21.856Z,11.40
2023-04-16T03:57:50.767Z,11.45
2023-04-16T04:00:19.351Z,11.85
2023-04-16T04:02:58.863Z,11.65
2023-04-16T04:05:27.224Z,11.75
2023-04-16T04:07:56.182Z,11.45
2023-04-16T04:10:24.511Z,11.48
2023-04-16T04:12:53.260Z,11.55
2023-04-16T04:15:21.517Z,12.40
2023-04-16T04:17:50.476Z,11.88
2023-04-16T04:20:18.900Z,12.55
2023-04-16T04:22:51.069Z,11.75
2023-04-16T04:25:21.847Z,12.20
2023-04-16T04:27:50.744Z,12.50
2023-04-16T04:30:19.554Z,12.82
2023-04-16T04:32:48.334Z,13.18
2023-04-16T04:35:18.067Z,14.10
2023-04-16T04:37:46.785Z,14.35
2023-04-16T04:40:19.356Z,14.60
2023-04-16T04:42:48.579Z,12.98
2023-04-16T04:45:17.139Z,14.13
2023-04-16T04:47:46.294Z,17.20
2023-04-16T04:50:15.063Z,16.83
2023-04-16T04:52:44.134Z,15.63
2023-04-16T04:55:14.256Z,13.45
2023-04-16T04:57:45.343Z,12.45
2023-04-16T05:00:14.123Z,12.80
2023-04-16T05:02:52.427Z,13.20
2023-04-16T05:05:21.931Z,13.00
2023-04-16T05:07:54.910Z,12.55
2023-04-16T05:10:23.529Z,12.25
2023-04-16T05:12:52.546Z,12.35
2023-04-16T05:15:21.151Z,12.88
2023-04-16T05:17:49.959Z,13.10
2023-04-16T05:20:18.398Z,13.77
2023-04-16T05:22:47.184Z,14.98
2023-04-16T05:25:15.428Z,13.48
2023-04-16T05:27:44.155Z,15.00
2023-04-16T05:30:12.931Z,14.85
2023-04-16T05:32:41.770Z,16.02
2023-04-16T05:35:10.476Z,15.55
2023-04-16T05:37:39.454Z,14.95
2023-04-16T05:40:08.561Z,14.88
2023-04-16T05:42:40.373Z,14.45
2023-04-16T05:45:09.224Z,13.95
2023-04-16T05:47:45.427Z,18.35
2023-04-16T05:50:16.572Z,17.42
2023-04-16T05:52:45.093Z,15.10
2023-04-16T05:55:13.722Z,14.70
2023-04-16T05:57:42.340Z,16.65
2023-04-16T06:00:11.392Z,16.48
2023-04-16T06:02:43.274Z,17.10
2023-04-16T06:05:11.624Z,16.95
2023-04-16T06:07:40.615Z,14.63
2023-04-16T06:10:09.654Z,16.05
2023-04-16T06:12:38.559Z,14.77
2023-04-16T06:15:07.528Z,13.93
2023-04-16T06:17:36.727Z,14.50
2023-04-16T06:20:05.579Z,13.82
2023-04-16T06:22:35.036Z,13.38
2023-04-16T06:25:04.592Z,14.35
2023-04-16T06:27:33.483Z,14.88
2023-04-16T06:30:01.850Z,12.40
2023-04-16T06:32:31.408Z,11.68
2023-04-16T06:34:59.779Z,12.52
2023-04-16T06:37:28.431Z,12.63
2023-04-16T06:39:56.719Z,11.50
2023-04-16T06:42:25.347Z,12.90
2023-04-16T06:44:54.920Z,12.90
2023-04-16T06:47:23.673Z,12.57
2023-04-16T06:49:52.282Z,10.20
2023-04-16T06:52:20.881Z,11.57
2023-04-16T06:54:53.260Z,16.13
2023-04-16T06:57:21.864Z,12.85
2023-04-16T06:59:50.103Z,11.70
2023-04-16T07:02:18.894Z,10.63
2023-04-16T07:04:47.298Z,11.23
2023-04-16T07:07:16.182Z,11.10
2023-04-16T07:09:44.624Z,11.63
2023-04-16T07:12:13.688Z,10.73
2023-04-16T07:14:42.244Z,10.50
2023-04-16T07:17:11.069Z,11.18
2023-04-16T07:19:39.334Z,10.82
2023-04-16T07:22:08.292Z,11.40
2023-04-16T07:24:36.521Z,10.55
2023-04-16T07:27:05.370Z,10.77
2023-04-16T07:29:42.740Z,10.73
2023-04-16T07:32:15.142Z,10.93
2023-04-16T07:34:43.788Z,11.38
2023-04-16T07:37:14.579Z,11.65
2023-04-16T07:39:42.873Z,10.55
2023-04-16T07:42:11.932Z,9.88
2023-04-16T07:44:40.161Z,10.50
2023-04-16T07:47:12.812Z,11.35
2023-04-16T07:49:41.070Z,11.63
2023-04-16T07:52:09.800Z,10.27
2023-04-16T07:54:38.278Z,9.70
2023-04-16T07:57:33.687Z,11.00
2023-04-16T08:00:07.755Z,11.20
2023-04-16T08:02:43.864Z,14.40
2023-04-16T08:05:13.536Z,9.80
2023-04-16T08:07:42.625Z,12.00
2023-04-16T08:10:11.369Z,10.82
2023-04-16T08:12:40.818Z,11.38
2023-04-16T08:15:09.689Z,12.00
2023-04-16T08:17:38.930Z,11.38
2023-04-16T08:20:07.767Z,15.77
2023-04-16T08:22:37.137Z,11.40
2023-04-16T08:25:06.134Z,14.60
2023-04-16T08:27:34.677Z,12.48
2023-04-16T08:30:03.255Z,13.27
2023-04-16T08:32:31.842Z,11.35
2023-04-16T08:35:00.361Z,14.32
2023-04-16T08:37:28.876Z,14.65
2023-04-16T08:39:57.260Z,11.40
2023-04-16T08:42:40.952Z,12.95
2023-04-16T08:45:18.235Z,13.57
2023-04-16T08:47:51.534Z,16.05
2023-04-16T08:50:24.983Z,13.57
2023-04-16T08:53:03.692Z,12.55
2023-04-16T08:55:47.027Z,15.20
2023-04-16T08:58:22.702Z,11.75
2023-04-16T09:00:51.973Z,11.45
2023-04-16T09:03:21.814Z,10.43
2023-04-16T09:05:51.455Z,12.45
2023-04-16T09:08:20.482Z,12.88
2023-04-16T09:10:49.648Z,15.98
2023-04-16T09:13:20.841Z,13.32
2023-04-16T09:16:04.359Z,13.23
2023-04-16T09:18:58.831Z,9.65
2023-04-16T09:21:28.480Z,9.60
2023-04-16T09:23:57.365Z,10.70
2023-04-16T09:26:27.398Z,10.57
2023-04-16T09:28:56.474Z,11.82
2023-04-16T09:31:24.698Z,11.73
2023-04-16T09:34:09.735Z,11.05
2023-04-16T09:37:17.038Z,13.48
2023-04-16T09:39:54.430Z,9.90
2023-04-16T09:42:33.182Z,8.82
2023-04-16T09:45:04.959Z,9.18
2023-04-16T09:48:05.645Z,11.57
2023-04-16T09:50:34.539Z,10.18
2023-04-16T09:53:03.805Z,11.07
2023-04-16T09:55:33.366Z,10.55
2023-04-16T09:58:02.470Z,9.63
2023-04-16T10:00:33.795Z,10.18
2023-04-16T10:03:07.023Z,9.00
2023-04-16T10:05:36.996Z,8.25
2023-04-16T10:08:13.351Z,12.43
2023-04-16T10:10:43.010Z,9.57
2023-04-16T10:13:12.856Z,8.95
2023-04-16T10:15:42.290Z,10.65
2023-04-16T10:18:43.276Z,10.30
2023-04-16T10:21:15.457Z,11.15
2023-04-16T10:24:14.302Z,11.15
2023-04-16T10:26:49.072Z,11.32
2023-04-16T10:29:22.219Z,11.27
2023-04-16T10:32:40.612Z,13.73
2023-04-16T10:36:05.066Z,13.32
2023-04-16T10:38:28.068Z,16.67
2023-04-16T10:41:00.946Z,18.67
2023-04-16T10:43:31.437Z,18.73
2023-04-16T10:46:25.098Z,18.67
2023-04-16T10:48:55.161Z,17.50
2023-04-16T10:51:36.112Z,15.60
2023-04-16T10:54:20.716Z,15.87
2023-04-16T10:56:50.671Z,14.30
2023-04-16T10:59:21.222Z,16.55
2023-04-16T11:01:56.148Z,20.17
2023-04-16T11:04:25.204Z,12.60
2023-04-16T11:07:16.578Z,18.92
2023-04-16T11:10:03.750Z,14.13
2023-04-16T11:12:44.852Z,16.38
2023-04-16T11:15:43.348Z,12.38
2023-04-16T11:18:11.836Z,14.23
2023-04-16T11:20:41.970Z,25.23
2023-04-16T11:23:13.328Z,18.02
2023-04-16T11:25:41.965Z,18.02
2023-04-16T11:28:10.368Z,24.45
2023-04-16T11:30:39.949Z,31.58
2023-04-16T11:33:11.314Z,93.78
2023-04-16T11:35:40.656Z,241.30
2023-04-16T11:38:09.259Z,109.22
2023-04-16T11:40:37.924Z,22.67
2023-04-16T11:43:17.265Z,13.38
2023-04-16T11:46:12.902Z,18.70
2023-04-16T11:48:52.686Z,15.55
2023-04-16T11:51:23.418Z,17.67
2023-04-16T11:53:54.721Z,14.52
2023-04-16T11:56:34.980Z,16.73
2023-04-16T11:59:09.012Z,18.50
2023-04-16T12:01:40.037Z,17.35
2023-04-16T12:04:09.236Z,12.55
2023-04-16T12:06:38.191Z,11.27
2023-04-16T12:09:26.264Z,11.68
2023-04-16T12:11:54.914Z,17.13
2023-04-16T12:14:23.703Z,16.00
2023-04-16T12:16:53.711Z,28.63
2023-04-16T12:19:22.047Z,30.05
2023-04-16T12:21:58.841Z,37.38
2023-04-16T12:24:39.763Z,16.48
2023-04-16T12:27:12.043Z,13.23
2023-04-16T12:32:23.503Z,19.27
2023-04-16T12:34:52.032Z,14.48
2023-04-16T12:37:20.579Z,18.58
2023-04-16T12:39:49.021Z,31.98
2023-04-16T12:42:21.695Z,27.85
2023-04-16T12:48:08.592Z,14.57
2023-04-16T12:50:36.956Z,23.35
2023-04-16T12:53:05.702Z,17.05
2023-04-16T12:55:34.142Z,18.42
2023-04-16T12:58:02.706Z,15.43
2023-04-16T13:00:31.129Z,23.88
2023-04-16T13:02:59.882Z,19.27
2023-04-16T13:05:28.320Z,16.50
2023-04-16T13:07:56.958Z,17.23
2023-04-16T13:10:25.516Z,16.70
2023-04-16T13:12:54.000Z,14.90
2023-04-16T13:15:22.489Z,15.23
2023-04-16T13:17:51.072Z,15.35
2023-04-16T13:20:19.317Z,15.38
2023-04-16T13:22:48.160Z,15.13
2023-04-16T13:25:16.540Z,16.45
2023-04-16T13:27:45.199Z,17.08
2023-04-16T13:30:13.758Z,16.30
2023-04-16T13:32:42.378Z,15.93
2023-04-16T13:35:11.094Z,16.23
2023-04-16T13:37:39.692Z,17.23
2023-04-16T13:40:08.662Z,17.70
2023-04-16T13:42:37.546Z,15.98
2023-04-16T13:45:06.227Z,17.10
2023-04-16T13:47:34.861Z,16.58
2023-04-16T13:50:03.218Z,16.45
2023-04-16T13:52:31.868Z,15.23
2023-04-16T13:55:00.680Z,16.48
2023-04-16T13:57:29.611Z,19.52
2023-04-16T13:59:58.323Z,20.80
2023-04-16T14:02:27.761Z,21.75
2023-04-16T14:04:56.240Z,18.13
2023-04-16T14:07:27.706Z,18.90
2023-04-16T14:09:56.038Z,17.17
2023-04-16T14:12:24.606Z,16.05
2023-04-16T14:14:52.864Z,15.40
2023-04-16T14:17:21.458Z,15.95
2023-04-16T14:19:50.070Z,15.48
2023-04-16T14:22:19.152Z,15.75
2023-04-16T14:24:47.374Z,17.25
2023-04-16T14:27:17.108Z,17.13
2023-04-16T14:29:46.768Z,17.58
2023-04-16T14:32:15.877Z,17.88
2023-04-16T14:34:44.173Z,17.10
2023-04-16T14:37:12.954Z,15.20
2023-04-16T14:39:41.323Z,15.30
2023-04-16T14:42:10.675Z,14.30
2023-04-16T14:44:38.908Z,11.88
2023-04-16T14:47:08.599Z,11.32
2023-04-16T14:49:36.963Z,11.90
2023-04-16T14:52:05.890Z,11.50
2023-04-16T14:54:34.396Z,10.13
2023-04-16T14:57:03.611Z,11.50
2023-04-16T14:59:32.845Z,11.02
2023-04-16T15:02:01.740Z,11.25
2023-04-16T15:04:30.551Z,11.38
2023-04-16T15:07:00.172Z,11.05
2023-04-16T15:09:28.398Z,12.05
2023-04-16T15:11:57.477Z,9.70
2023-04-16T15:14:25.979Z,6.50
2023-04-16T15:16:54.668Z,6.85
2023-04-16T15:19:23.111Z,6.43
2023-04-16T15:21:51.812Z,6.93
2023-04-16T15:24:20.116Z,7.80
2023-04-16T15:26:48.650Z,9.68
2023-04-16T15:29:17.190Z,11.05
2023-04-16T15:31:45.793Z,8.98
2023-04-16T15:34:14.063Z,7.28
2023-04-16T15:36:43.164Z,7.20
2023-04-16T15:39:11.677Z,7.65
2023-04-16T15:41:57.058Z,7.70
2023-04-16T15:44:28.124Z,7.38
2023-04-16T15:46:57.015Z,7.97
2023-04-16T15:49:25.852Z,9.07
2023-04-16T15:51:54.763Z,9.13
2023-04-16T15:54:23.819Z,8.60
2023-04-16T15:56:52.500Z,8.02
2023-04-16T15:59:20.850Z,7.80
2023-04-16T16:01:49.812Z,8.75
2023-04-16T16:04:18.435Z,8.05
2023-04-16T16:06:47.651Z,7.63
2023-04-16T16:09:24.684Z,7.35
2023-04-16T16:11:58.346Z,7.90
2023-04-16T16:14:27.134Z,6.60
2023-04-16T16:16:55.759Z,7.30
2023-04-16T16:19:24.115Z,6.82
2023-04-16T16:21:52.917Z,7.10
2023-04-16T16:24:21.314Z,7.75
2023-04-16T16:26:49.929Z,7.20
2023-04-16T16:29:18.254Z,6.70
2023-04-16T16:31:46.926Z,7.70
2023-04-16T16:34:20.863Z,6.35
2023-04-16T16:36:49.873Z,6.13
2023-04-16T16:39:22.478Z,6.63
2023-04-16T16:41:53.079Z,6.93
2023-04-16T16:44:22.023Z,6.68
2023-04-16T16:46:51.641Z,6.68
2023-04-16T16:49:20.312Z,6.63
2023-04-16T16:51:48.956Z,6.57
2023-04-16T16:54:17.175Z,6.32
2023-04-16T16:56:45.802Z,6.63
2023-04-16T16:59:14.161Z,5.97
2023-04-16T17:01:42.700Z,6.20
2023-04-16T17:04:11.077Z,6.20
2023-04-16T17:06:39.974Z,6.07
2023-04-16T17:09:08.563Z,5.93
2023-04-16T17:11:56.959Z,6.82
2023-04-16T17:14:25.448Z,6.75
2023-04-16T17:16:54.643Z,6.43
2023-04-16T17:19:23.133Z,7.25
2023-04-16T17:21:52.387Z,7.15
2023-04-16T17:24:20.679Z,7.43
2023-04-16T17:26:49.271Z,15.35
2023-04-16T17:29:17.623Z,8.40
2023-04-16T17:31:50.000Z,8.07
2023-04-16T17:43:38.335Z,9.50
2023-04-16T17:52:01.385Z,8.70
2023-04-16T17:55:31.335Z,7.40
2023-04-16T17:58:59.286Z,6.90
2023-04-16T18:11:31.151Z,8.82
2023-04-16T18:27:49.118Z,7.93
2023-04-16T19:16:19.324Z,7.85
2023-04-16T19:19:21.177Z,7.70
2023-04-16T19:21:55.786Z,7.70
2023-04-16T19:24:53.350Z,8.30
2023-04-16T19:27:49.719Z,8.38
2023-04-16T19:33:50.161Z,8.23
2023-04-16T19:36:19.093Z,7.93
2023-04-16T19:38:47.326Z,7.80
2023-04-16T19:41:16.209Z,8.00
2023-04-16T19:43:45.647Z,7.80
2023-04-16T19:46:17.404Z,8.07
2023-04-16T19:49:10.087Z,8.77
2023-04-16T19:52:04.531Z,8.48
2023-04-16T19:54:54.748Z,7.88
2023-04-16T19:57:23.564Z,8.57
2023-04-16T19:59:54.018Z,7.95
2023-04-16T20:02:23.663Z,7.10
2023-04-16T20:04:53.343Z,7.80
2023-04-16T20:07:22.313Z,8.77
2023-04-16T20:10:15.641Z,9.05
2023-04-16T20:12:44.164Z,8.88
2023-04-16T20:15:12.428Z,7.45
2023-04-16T20:17:41.390Z,7.95
2023-04-16T20:20:10.475Z,7.05
2023-04-16T20:22:40.074Z,8.65
2023-04-16T20:25:13.194Z,9.18
2023-04-16T20:27:42.345Z,8.60
2023-04-16T20:30:12.998Z,8.02
2023-04-16T20:32:44.038Z,8.52
2023-04-16T20:37:43.177Z,9.32
2023-04-16T20:40:14.115Z,9.43
2023-04-16T20:42:46.585Z,9.05
2023-04-16T20:47:45.750Z,11.07
2023-04-16T20:50:14.117Z,9.93
2023-04-16T20:52:43.026Z,10.85
2023-04-16T20:55:14.315Z,9.70
2023-04-16T20:58:08.737Z,8.80
2023-04-16T21:00:37.294Z,8.07
2023-04-16T21:03:06.920Z,8.35
2023-04-16T21:05:35.495Z,7.93
2023-04-16T21:08:04.425Z,7.07
2023-04-16T21:10:40.389Z,6.90
2023-04-16T21:13:17.110Z,6.85
2023-04-16T21:15:47.389Z,6.63
2023-04-16T21:18:26.220Z,6.00
2023-04-16T21:20:54.434Z,6.55
2023-04-16T21:23:26.936Z,6.40
2023-04-16T21:25:58.427Z,7.13
2023-04-16T21:28:27.187Z,6.32
2023-04-16T21:30:58.915Z,7.13
2023-04-16T21:33:27.753Z,6.68
2023-04-16T21:36:27.621Z,7.07
2023-04-16T21:39:00.043Z,6.15
2023-04-16T21:41:28.704Z,6.60
2023-04-16T21:44:00.373Z,6.43
2023-04-16T21:46:29.838Z,6.10
2023-04-16T21:48:58.633Z,7.80
2023-04-16T21:51:30.038Z,6.78
2023-04-16T21:53:58.934Z,7.30
2023-04-16T21:56:27.890Z,6.93
2023-04-16T21:58:56.444Z,6.38
2023-04-16T22:04:26.420Z,7.70
2023-04-16T22:06:56.223Z,7.32
2023-04-16T22:09:25.471Z,7.57
2023-04-16T22:11:54.486Z,7.85
2023-04-16T22:14:22.934Z,7.97
2023-04-16T22:16:51.808Z,8.43
2023-04-16T22:19:21.661Z,8.68
2023-04-16T22:21:50.840Z,8.30
2023-04-16T22:24:19.197Z,7.88
2023-04-16T22:26:47.698Z,8.18
2023-04-16T22:29:16.015Z,8.35
2023-04-16T22:31:44.685Z,8.75
2023-04-16T22:34:13.160Z,8.48
2023-04-16T22:36:42.241Z,9.45
2023-04-16T22:39:10.667Z,9.48
2023-04-16T22:41:39.528Z,9.32
2023-04-16T22:44:07.759Z,10.02
2023-04-16T22:46:36.752Z,10.23
2023-04-16T22:49:05.187Z,9.65
2023-04-16T22:51:34.284Z,9.80
2023-04-16T22:54:02.474Z,10.07
2023-04-16T22:56:31.474Z,10.45
2023-04-16T22:59:02.973Z,10.88
2023-04-16T23:01:32.551Z,11.50
2023-04-16T23:04:01.156Z,10.75
2023-04-16T23:06:29.930Z,11.55
2023-04-16T23:08:58.131Z,12.13
2023-04-16T23:11:26.913Z,11.73
2023-04-16T23:13:55.275Z,11.52
2023-04-16T23:16:23.823Z,12.38
2023-04-16T23:18:52.117Z,12.32
2023-04-16T23:21:21.007Z,12.50
2023-04-16T23:23:49.230Z,12.80
2023-04-16T23:26:18.213Z,12.95
2023-04-16T23:28:46.419Z,12.82
2023-04-16T23:31:15.152Z,13.02
2023-04-16T23:33:43.338Z,13.35
2023-04-16T23:36:11.928Z,13.43
2023-04-16T23:38:40.087Z,13.65
2023-04-16T23:41:08.683Z,13.43
2023-04-16T23:43:37.091Z,13.68
2023-04-16T23:46:06.235Z,13.18
2023-04-16T23:48:34.679Z,13.60
2023-04-16T23:51:03.665Z,14.05
2023-04-16T23:53:31.830Z,14.32
2023-04-16T23:56:00.390Z,14.35
2023-04-16T23:58:28.775Z,13.63
